Time;durP1;ratioP1;P1;durP2;ratioP2;P2;SDS_P1;SDS_P2;PMS_P1;PMS_P2;Temp;Humidity;BMP_temperature;BMP_pressure;BME280_temperature;BME280_humidity;BME280_pressure;Samples;Min_cycle;Max_cycle;Signal;HPM_P1;HPM_P2
2022/10/22 00:01:19;;;;;;;1.38;0.90;;;21.40;57.50;;;;;;5046420;28;20044;-50
2022/10/22 00:03:45;;;;;;;2.80;0.88;;;21.40;57.50;;;;;;5049381;28;20030;-50
2022/10/22 00:06:11;;;;;;;1.67;1.20;;;21.40;57.50;;;;;;5051330;28;20036;-53
2022/10/22 00:08:37;;;;;;;2.28;1.00;;;21.40;57.50;;;;;;5048779;28;20072;-47
2022/10/22 00:11:29;;;;;;;9.07;1.38;;;21.40;57.50;;;;;;5051938;28;20048;-53
2022/10/22 00:13:55;;;;;;;1.80;1.23;;;21.40;57.50;;;;;;5048584;28;20037;-52
2022/10/22 00:16:20;;;;;;;2.47;0.95;;;21.30;57.40;;;;;;5051159;28;20079;-49
2022/10/22 00:18:46;;;;;;;2.30;1.17;;;21.30;57.40;;;;;;5050023;28;20029;-50
2022/10/22 00:21:12;;;;;;;1.65;1.00;;;21.30;57.40;;;;;;5046256;28;20045;-51
2022/10/22 00:23:41;;;;;;;1.65;1.00;;;21.30;57.40;;;;;;5051069;28;20082;-51
2022/10/22 00:26:08;;;;;;;1.25;1.00;;;21.30;57.40;;;;;;5052006;28;20118;-50
2022/10/22 00:28:34;;;;;;;1.80;0.90;;;21.30;57.30;;;;;;5050815;28;20109;-48
2022/10/22 00:31:00;;;;;;;3.53;1.25;;;21.30;57.30;;;;;;5049075;28;20478;-48
2022/10/22 00:33:27;;;;;;;2.60;1.15;;;21.30;57.30;;;;;;5048701;28;20449;-51
2022/10/22 00:35:53;;;;;;;1.27;1.02;;;21.30;57.30;;;;;;5048875;28;20114;-50
2022/10/22 00:38:19;;;;;;;3.03;0.98;;;21.30;57.30;;;;;;5048667;28;20455;-47
2022/10/22 00:40:45;;;;;;;2.05;1.00;;;21.30;57.30;;;;;;5050101;28;20066;-51
2022/10/22 00:43:14;;;;;;;2.60;1.30;;;21.30;57.20;;;;;;5051305;28;20036;-52
2022/10/22 00:45:40;;;;;;;2.33;0.90;;;21.30;57.20;;;;;;5051485;28;20334;-51
2022/10/22 00:48:08;;;;;;;2.03;1.10;;;21.30;57.20;;;;;;5048734;28;20037;-51
2022/10/22 00:50:43;;;;;;;1.83;1.13;;;21.30;57.10;;;;;;5046927;28;20128;-50
2022/10/22 00:53:21;;;;;;;1.33;0.90;;;21.30;57.00;;;;;;5048397;28;20044;-48
2022/10/22 00:55:52;;;;;;;1.20;0.93;;;21.30;57.00;;;;;;5048673;28;20102;-48
2022/10/22 00:58:20;;;;;;;1.58;1.10;;;21.30;57.00;;;;;;5049375;28;20036;-50
2022/10/22 01:00:46;;;;;;;2.58;1.10;;;21.30;57.00;;;;;;5043546;28;20044;-50
2022/10/22 01:03:12;;;;;;;1.50;0.98;;;21.30;57.00;;;;;;5049016;28;20353;-51
2022/10/22 01:05:44;;;;;;;3.10;1.13;;;21.30;57.00;;;;;;5049804;28;20025;-52
2022/10/22 01:08:27;;;;;;;1.75;1.27;;;21.30;57.00;;;;;;5047984;28;20025;-51
2022/10/22 01:11:10;;;;;;;1.42;1.05;;;21.30;57.00;;;;;;5049290;28;20044;-46
2022/10/22 01:13:36;;;;;;;2.65;1.20;;;21.30;57.00;;;;;;5051401;28;20765;-51
2022/10/22 01:16:13;;;;;;;1.73;1.08;;;21.30;57.00;;;;;;5046665;28;20029;-51
2022/10/22 01:19:02;;;;;;;1.63;0.90;;;21.30;57.00;;;;;;5046978;28;20456;-47
2022/10/22 01:21:38;;;;;;;2.83;1.20;;;21.30;57.00;;;;;;5036184;28;20179;-51
2022/10/22 01:24:40;;;;;;;1.67;1.08;;;21.30;57.00;;;;;;5050939;28;20028;-47
2022/10/22 01:27:24;;;;;;;1.55;1.20;;;21.20;56.90;;;;;;5044598;28;20033;-49
2022/10/22 01:30:06;;;;;;;1.52;0.95;;;21.30;56.90;;;;;;5047960;28;20117;-51
2022/10/22 01:32:39;;;;;;;2.88;1.00;;;21.20;56.90;;;;;;5048885;28;20395;-52
2022/10/22 01:35:10;;;;;;;2.97;1.05;;;21.20;56.90;;;;;;5050260;28;20450;-53
2022/10/22 01:37:45;;;;;;;1.13;0.82;;;21.20;56.90;;;;;;5050109;28;20056;-52
2022/10/22 01:40:15;;;;;;;1.40;0.90;;;21.20;56.90;;;;;;5049772;28;20037;-51
2022/10/22 01:42:41;;;;;;;1.02;0.75;;;21.20;56.90;;;;;;5046167;28;20094;-52
2022/10/22 01:45:13;;;;;;;1.40;0.98;;;21.20;56.90;;;;;;5047717;28;20029;-51
2022/10/22 01:48:04;;;;;;;1.48;0.80;;;21.20;56.80;;;;;;5046913;28;20025;-49
2022/10/22 01:50:49;;;;;;;1.65;0.80;;;21.20;56.80;;;;;;5046488;28;20411;-49
2022/10/22 01:53:17;;;;;;;1.63;1.10;;;21.20;56.80;;;;;;5047766;28;20460;-48
2022/10/22 01:55:52;;;;;;;5.65;2.00;;;21.20;56.80;;;;;;5049670;28;20567;-53
2022/10/22 01:58:44;;;;;;;1.27;0.80;;;21.20;56.80;;;;;;5048337;28;20095;-52
2022/10/22 02:01:25;;;;;;;3.42;1.00;;;21.20;56.80;;;;;;5049066;28;20120;-52
2022/10/22 02:04:05;;;;;;;1.13;0.88;;;21.20;56.80;;;;;;5050193;28;20070;-48
2022/10/22 02:06:33;;;;;;;1.50;1.02;;;21.20;56.80;;;;;;5047523;28;20025;-48
2022/10/22 02:09:01;;;;;;;2.00;0.85;;;21.20;56.80;;;;;;5049821;28;20028;-51
2022/10/22 02:11:26;;;;;;;1.45;0.88;;;21.20;56.70;;;;;;5048289;28;20104;-50
2022/10/22 02:13:56;;;;;;;1.65;0.90;;;21.20;56.70;;;;;;5048705;28;20129;-54
2022/10/22 02:16:40;;;;;;;1.60;0.80;;;21.20;56.70;;;;;;5048187;28;20025;-51
2022/10/22 02:19:14;;;;;;;1.42;0.90;;;21.20;56.70;;;;;;5045358;28;20099;-54
2022/10/22 02:21:40;;;;;;;1.30;0.93;;;21.10;56.50;;;;;;5049450;28;20360;-52
2022/10/22 02:24:06;;;;;;;1.45;1.00;;;21.10;56.60;;;;;;5049693;28;20383;-52
2022/10/22 02:26:43;;;;;;;1.58;0.93;;;21.10;56.50;;;;;;5049322;28;20032;-52
2022/10/22 02:29:19;;;;;;;2.20;1.02;;;21.20;56.60;;;;;;5047040;28;20387;-54
2022/10/22 02:31:47;;;;;;;1.98;1.00;;;21.10;56.50;;;;;;5049287;28;20476;-50
2022/10/22 02:34:22;;;;;;;1.83;0.90;;;21.10;56.50;;;;;;5048012;28;20033;-50
2022/10/22 02:36:49;;;;;;;2.65;0.93;;;21.10;56.50;;;;;;5049828;28;20029;-50
2022/10/22 02:39:16;;;;;;;1.23;0.68;;;21.10;56.60;;;;;;5048491;28;20044;-47
2022/10/22 02:41:42;;;;;;;1.98;0.88;;;21.10;56.50;;;;;;5053792;28;20055;-49
2022/10/22 02:44:09;;;;;;;1.45;0.70;;;21.10;56.50;;;;;;5050767;28;20048;-47
2022/10/22 02:46:37;;;;;;;3.13;1.02;;;21.10;56.50;;;;;;5053257;28;20162;-46
2022/10/22 02:49:03;;;;;;;2.05;1.10;;;21.10;56.50;;;;;;5051512;28;20025;-47
2022/10/22 02:51:28;;;;;;;0.88;0.80;;;21.10;56.60;;;;;;5051948;28;20029;-52
2022/10/22 02:53:54;;;;;;;1.05;0.80;;;21.10;56.50;;;;;;5053162;28;20028;-47
2022/10/22 02:56:20;;;;;;;1.95;1.10;;;21.10;56.50;;;;;;5054107;28;20071;-50
2022/10/22 02:58:46;;;;;;;3.63;1.05;;;21.10;56.50;;;;;;5052737;28;20033;-51
2022/10/22 03:01:11;;;;;;;2.55;1.20;;;21.10;56.50;;;;;;5053001;28;20065;-48
2022/10/22 03:03:37;;;;;;;1.63;0.80;;;21.10;56.50;;;;;;5052242;28;20033;-50
2022/10/22 03:06:03;;;;;;;1.58;0.90;;;21.10;56.50;;;;;;5050295;28;20029;-49
2022/10/22 03:08:29;;;;;;;2.25;1.17;;;21.10;56.50;;;;;;5050738;28;20159;-50
2022/10/22 03:10:55;;;;;;;1.20;0.80;;;21.10;56.50;;;;;;5053096;28;20449;-46
2022/10/22 03:13:20;;;;;;;2.45;0.82;;;21.10;56.50;;;;;;5050214;28;20052;-47
2022/10/22 03:15:50;;;;;;;2.20;1.00;;;21.00;56.40;;;;;;5053044;28;20029;-51
2022/10/22 03:18:16;;;;;;;1.00;0.90;;;21.10;56.40;;;;;;5052923;28;20098;-51
2022/10/22 03:20:42;;;;;;;1.25;0.98;;;21.10;56.40;;;;;;5045950;28;20741;-52
2022/10/22 03:23:10;;;;;;;3.42;1.13;;;21.10;56.40;;;;;;5050414;28;20030;-51
2022/10/22 03:25:39;;;;;;;1.48;0.80;;;21.10;56.40;;;;;;5051000;28;20025;-48
2022/10/22 03:28:08;;;;;;;1.05;0.77;;;21.10;56.40;;;;;;5053247;28;20182;-52
2022/10/22 03:30:33;;;;;;;2.00;0.88;;;21.10;56.40;;;;;;5051363;28;20024;-51
2022/10/22 03:32:59;;;;;;;2.03;0.90;;;21.10;56.50;;;;;;5053160;28;20039;-51
2022/10/22 03:35:25;;;;;;;1.70;0.80;;;21.10;56.40;;;;;;5051685;28;20039;-47
2022/10/22 03:37:51;;;;;;;2.40;0.90;;;21.00;56.40;;;;;;5052634;28;20108;-52
2022/10/22 03:40:17;;;;;;;1.73;1.02;;;21.10;56.50;;;;;;5051603;28;20072;-53
2022/10/22 03:42:43;;;;;;;1.00;0.80;;;21.10;56.50;;;;;;5051184;28;20340;-49
2022/10/22 03:45:10;;;;;;;3.08;0.90;;;21.10;56.50;;;;;;5051979;28;20108;-51
2022/10/22 03:47:36;;;;;;;2.03;1.00;;;21.00;56.50;;;;;;5049862;28;20024;-51
2022/10/22 03:50:03;;;;;;;1.17;0.77;;;21.10;56.60;;;;;;5048047;28;20025;-48
2022/10/22 03:52:35;;;;;;;3.72;0.90;;;21.00;56.50;;;;;;5051662;28;20103;-48
2022/10/22 03:55:00;;;;;;;3.65;0.95;;;21.00;56.50;;;;;;5050934;28;20317;-49
2022/10/22 03:57:27;;;;;;;1.55;1.02;;;21.00;56.50;;;;;;5052061;28;20124;-50
2022/10/22 03:59:52;;;;;;;2.08;0.85;;;21.00;56.50;;;;;;5048507;28;20067;-51
2022/10/22 04:02:18;;;;;;;1.42;0.90;;;21.00;56.50;;;;;;5048523;28;20040;-49
2022/10/22 04:04:44;;;;;;;2.10;1.00;;;21.00;56.50;;;;;;5051772;28;20025;-50
2022/10/22 04:07:10;;;;;;;1.80;0.90;;;21.00;56.50;;;;;;5051520;28;20036;-49
2022/10/22 04:09:36;;;;;;;1.75;0.93;;;21.00;56.50;;;;;;5047018;28;20032;-51
2022/10/22 04:12:04;;;;;;;1.65;0.88;;;21.00;56.50;;;;;;5049379;28;20506;-50
2022/10/22 04:14:30;;;;;;;1.08;0.90;;;21.00;56.40;;;;;;5049827;28;20080;-51
2022/10/22 04:16:55;;;;;;;1.45;0.80;;;21.00;56.40;;;;;;5051115;28;20064;-50
2022/10/22 04:19:21;;;;;;;1.63;0.90;;;21.00;56.40;;;;;;5048575;28;20032;-50
2022/10/22 04:21:47;;;;;;;2.15;0.90;;;21.00;56.40;;;;;;5045610;28;20049;-51
2022/10/22 04:24:13;;;;;;;2.08;0.90;;;21.00;56.40;;;;;;5051669;28;20034;-51
2022/10/22 04:26:38;;;;;;;1.75;0.90;;;21.00;56.40;;;;;;5051193;28;20021;-51
2022/10/22 04:29:07;;;;;;;1.65;0.90;;;21.00;56.40;;;;;;5050451;28;20029;-49
2022/10/22 04:31:33;;;;;;;1.25;0.80;;;21.00;56.40;;;;;;5050710;28;20212;-52
2022/10/22 04:33:59;;;;;;;1.00;0.82;;;21.00;56.50;;;;;;5050731;28;20044;-50
2022/10/22 04:36:26;;;;;;;3.03;0.80;;;21.00;56.50;;;;;;5050136;28;20025;-52
2022/10/22 04:38:58;;;;;;;1.73;0.82;;;21.00;56.50;;;;;;5051759;28;20025;-49
2022/10/22 04:41:27;;;;;;;1.98;1.27;;;21.00;56.50;;;;;;5049363;28;20041;-52
2022/10/22 04:43:54;;;;;;;1.23;0.90;;;21.00;56.50;;;;;;5051554;28;20060;-53
2022/10/22 04:46:20;;;;;;;2.25;0.93;;;21.00;56.50;;;;;;5050824;28;20029;-49
2022/10/22 04:48:46;;;;;;;2.35;0.80;;;21.00;56.50;;;;;;5047689;28;20045;-48
2022/10/22 04:51:17;;;;;;;1.00;0.73;;;20.90;56.40;;;;;;5046565;28;20056;-52
2022/10/22 04:53:44;;;;;;;1.67;0.82;;;20.90;56.40;;;;;;5049348;28;20167;-50
2022/10/22 04:56:15;;;;;;;1.88;1.02;;;20.90;56.40;;;;;;5048408;28;20029;-53
2022/10/22 04:58:42;;;;;;;1.27;0.90;;;20.90;56.40;;;;;;5050076;28;20086;-50
2022/10/22 05:01:17;;;;;;;1.05;0.75;;;20.90;56.40;;;;;;5050128;28;20045;-52
2022/10/22 05:03:44;;;;;;;1.13;0.90;;;20.90;56.40;;;;;;5048894;28;20036;-48
2022/10/22 05:06:10;;;;;;;0.88;0.75;;;20.90;56.40;;;;;;5048546;28;20187;-48
2022/10/22 05:08:36;;;;;;;1.40;1.00;;;20.90;56.40;;;;;;5049075;28;20040;-51
2022/10/22 05:11:20;;;;;;;2.25;0.82;;;20.90;56.40;;;;;;5048166;28;20037;-51
2022/10/22 05:13:46;;;;;;;1.40;0.70;;;20.90;56.40;;;;;;5046146;28;20053;-48
2022/10/22 05:16:13;;;;;;;2.30;1.00;;;20.90;56.50;;;;;;5050449;28;20275;-52
2022/10/22 05:18:41;;;;;;;1.75;0.93;;;20.90;57.20;;;;;;5048669;28;20467;-49
2022/10/22 05:21:18;;;;;;;1.77;0.95;;;20.90;56.60;;;;;;5051000;28;20044;-50
2022/10/22 05:23:47;;;;;;;2.75;1.00;;;20.90;56.60;;;;;;5047654;28;20025;-48
2022/10/22 05:26:14;;;;;;;1.95;0.80;;;20.90;56.70;;;;;;5048825;28;20025;-52
2022/10/22 05:28:41;;;;;;;1.25;0.88;;;20.90;56.70;;;;;;5048190;28;20116;-49
2022/10/22 05:31:09;;;;;;;1.83;0.95;;;20.90;56.70;;;;;;5050758;28;20044;-50
2022/10/22 05:33:35;;;;;;;1.92;0.85;;;20.90;56.70;;;;;;5048839;28;20021;-51
2022/10/22 05:36:03;;;;;;;1.30;0.73;;;20.90;56.70;;;;;;5049381;28;20036;-49
2022/10/22 05:38:30;;;;;;;2.40;1.05;;;20.90;56.80;;;;;;5050687;28;20025;-53
2022/10/22 05:41:17;;;;;;;0.73;0.63;;;20.90;56.80;;;;;;5047503;28;20045;-52
2022/10/22 05:43:43;;;;;;;1.50;0.80;;;20.90;56.70;;;;;;5046134;28;20057;-51
2022/10/22 05:46:21;;;;;;;1.35;0.73;;;20.90;56.80;;;;;;5050530;28;20444;-50
2022/10/22 05:48:54;;;;;;;2.60;1.00;;;20.90;56.80;;;;;;5047138;28;20028;-50
2022/10/22 05:51:20;;;;;;;1.88;1.00;;;20.90;56.90;;;;;;5049258;28;20349;-46
2022/10/22 05:53:54;;;;;;;1.38;0.90;;;20.90;56.90;;;;;;5050183;28;20033;-50
2022/10/22 05:56:21;;;;;;;1.77;0.80;;;20.90;56.90;;;;;;5048770;28;20025;-48
2022/10/22 05:58:47;;;;;;;1.70;0.88;;;20.90;56.90;;;;;;5046621;28;20029;-48
2022/10/22 06:01:14;;;;;;;2.22;0.90;;;20.80;56.80;;;;;;5047490;28;20423;-50
2022/10/22 06:03:41;;;;;;;1.48;0.98;;;20.80;56.80;;;;;;5047696;28;20466;-49
2022/10/22 06:06:30;;;;;;;2.53;0.80;;;20.90;56.90;;;;;;5050283;28;20025;-48
2022/10/22 06:09:22;;;;;;;1.55;0.80;;;20.80;56.80;;;;;;5047859;28;20029;-48
2022/10/22 06:11:48;;;;;;;3.20;1.15;;;20.80;56.90;;;;;;5037014;28;20076;-48
2022/10/22 06:14:15;;;;;;;3.55;0.90;;;20.90;57.00;;;;;;5050094;28;20041;-49
2022/10/22 06:16:41;;;;;;;3.63;0.98;;;20.80;56.90;;;;;;5053311;28;20025;-47
2022/10/22 06:19:08;;;;;;;1.35;0.82;;;20.90;57.00;;;;;;5050170;28;20026;-49
2022/10/22 06:21:34;;;;;;;2.40;1.05;;;20.90;57.10;;;;;;5053223;28;20037;-48
2022/10/22 06:24:01;;;;;;;1.48;0.90;;;20.80;57.00;;;;;;5052807;28;20086;-51
2022/10/22 06:26:27;;;;;;;1.45;0.85;;;20.80;57.00;;;;;;5049631;28;20033;-51
2022/10/22 06:28:55;;;;;;;2.53;0.90;;;20.80;57.10;;;;;;5052355;28;20108;-54
2022/10/22 06:31:21;;;;;;;1.13;0.88;;;20.80;57.10;;;;;;5051958;28;20099;-47
2022/10/22 06:33:47;;;;;;;2.45;1.20;;;20.90;57.20;;;;;;5050592;28;20106;-50
2022/10/22 06:36:15;;;;;;;3.30;0.85;;;20.80;57.20;;;;;;5052435;28;20159;-48
2022/10/22 06:38:42;;;;;;;2.38;0.80;;;20.80;57.20;;;;;;5051275;28;21737;-51
2022/10/22 06:41:13;;;;;;;2.05;0.90;;;20.90;57.30;;;;;;5053019;28;20800;-46
2022/10/22 06:43:41;;;;;;;2.28;1.20;;;20.80;57.40;;;;;;5051863;28;20325;-51
2022/10/22 06:46:08;;;;;;;2.63;1.08;;;20.80;57.40;;;;;;5051274;28;20032;-47
2022/10/22 06:48:36;;;;;;;3.33;1.02;;;20.80;57.50;;;;;;5051197;28;20158;-51
2022/10/22 06:51:21;;;;;;;1.95;1.05;;;20.80;57.50;;;;;;5050896;28;20025;-52
2022/10/22 06:53:47;;;;;;;4.90;1.00;;;20.90;57.60;;;;;;5053812;28;20107;-47
2022/10/22 06:56:16;;;;;;;2.20;1.00;;;20.80;57.60;;;;;;5051959;28;20025;-48
2022/10/22 06:58:42;;;;;;;1.67;0.93;;;20.90;57.70;;;;;;5046510;28;20025;-51
2022/10/22 07:01:13;;;;;;;2.58;1.20;;;20.90;57.80;;;;;;5050066;28;20059;-49
2022/10/22 07:03:39;;;;;;;1.80;0.88;;;20.80;57.70;;;;;;5052528;28;20021;-49
2022/10/22 07:06:08;;;;;;;2.22;1.02;;;20.80;57.80;;;;;;5048431;28;20036;-51
2022/10/22 07:08:34;;;;;;;3.53;1.30;;;20.80;57.80;;;;;;5050549;28;20039;-52
2022/10/22 07:11:12;;;;;;;2.83;1.30;;;20.90;57.80;;;;;;5051432;28;20075;-48
2022/10/22 07:13:38;;;;;;;1.60;0.80;;;20.80;57.80;;;;;;5048765;28;20038;-48
2022/10/22 07:16:05;;;;;;;1.50;0.90;;;20.80;57.80;;;;;;5050821;28;20106;-49
2022/10/22 07:18:32;;;;;;;1.88;0.80;;;20.90;57.90;;;;;;5050266;28;20029;-51
2022/10/22 07:20:58;;;;;;;2.22;0.65;;;20.90;57.90;;;;;;5050440;28;20039;-51
2022/10/22 07:23:25;;;;;;;2.10;1.05;;;20.90;57.90;;;;;;5050111;28;20068;-47
2022/10/22 07:25:51;;;;;;;3.25;0.98;;;20.90;57.90;;;;;;5049008;28;20036;-50
2022/10/22 07:28:17;;;;;;;2.17;1.05;;;20.90;57.90;;;;;;5050228;28;20035;-50
2022/10/22 07:30:43;;;;;;;1.95;0.82;;;20.90;58.00;;;;;;5049674;28;20059;-48
2022/10/22 07:33:09;;;;;;;2.78;1.33;;;20.90;58.00;;;;;;5051906;28;20028;-51
2022/10/22 07:35:36;;;;;;;4.32;1.35;;;20.90;58.10;;;;;;5053434;28;20025;-49
2022/10/22 07:38:02;;;;;;;2.22;0.90;;;20.90;58.10;;;;;;5052023;28;20027;-49
2022/10/22 07:40:28;;;;;;;2.47;1.00;;;20.90;58.20;;;;;;5048395;28;20147;-53
2022/10/22 07:42:54;;;;;;;2.65;1.05;;;20.90;58.20;;;;;;5046549;28;20108;-53
2022/10/22 07:45:20;;;;;;;1.67;0.80;;;20.90;58.20;;;;;;5052599;28;20024;-51
2022/10/22 07:47:47;;;;;;;2.33;0.90;;;20.90;58.30;;;;;;5052432;28;20040;-50
2022/10/22 07:50:13;;;;;;;2.65;0.80;;;20.90;58.40;;;;;;5050685;28;20510;-50
2022/10/22 07:52:39;;;;;;;3.55;1.15;;;20.90;58.40;;;;;;5051054;28;20078;-49
2022/10/22 07:55:05;;;;;;;1.30;0.80;;;20.90;58.40;;;;;;5050403;28;20029;-50
2022/10/22 07:57:31;;;;;;;3.65;1.02;;;20.90;58.40;;;;;;5048912;28;20049;-49
2022/10/22 07:59:57;;;;;;;3.42;0.98;;;20.90;58.50;;;;;;5036661;28;20076;-49
2022/10/22 08:02:23;;;;;;;2.35;0.95;;;21.00;58.50;;;;;;5048087;28;20072;-52
2022/10/22 08:04:50;;;;;;;3.65;1.20;;;21.00;58.50;;;;;;5052144;28;20052;-53
2022/10/22 08:07:17;;;;;;;3.40;1.05;;;21.00;58.50;;;;;;5036789;28;20048;-51
2022/10/22 08:09:42;;;;;;;3.80;1.33;;;21.00;58.60;;;;;;5050950;28;20059;-54
2022/10/22 08:12:08;;;;;;;4.32;0.90;;;21.00;58.60;;;;;;5054441;28;20029;-52
2022/10/22 08:14:34;;;;;;;2.35;1.10;;;21.00;58.60;;;;;;5051921;28;20049;-50
2022/10/22 08:17:00;;;;;;;2.67;1.00;;;21.00;58.60;;;;;;5051668;28;20028;-50
2022/10/22 08:19:27;;;;;;;2.30;1.00;;;21.00;58.60;;;;;;5049551;28;20357;-51
2022/10/22 08:21:53;;;;;;;3.55;1.45;;;21.00;58.60;;;;;;5049028;28;20133;-52
2022/10/22 08:24:19;;;;;;;2.40;1.10;;;21.00;58.50;;;;;;5050216;28;20398;-52
2022/10/22 08:26:45;;;;;;;2.05;1.10;;;21.00;58.50;;;;;;5051402;28;20028;-53
2022/10/22 08:29:11;;;;;;;3.53;1.35;;;21.10;58.50;;;;;;5048115;28;20033;-51
2022/10/22 08:31:36;;;;;;;2.40;1.13;;;21.00;58.40;;;;;;5051355;28;20028;-51
2022/10/22 08:34:04;;;;;;;4.70;1.00;;;21.10;58.40;;;;;;5047529;28;20113;-50
2022/10/22 08:36:30;;;;;;;3.78;1.25;;;21.10;58.40;;;;;;5049766;28;20086;-49
2022/10/22 08:38:56;;;;;;;7.47;1.20;;;21.10;58.30;;;;;;5050487;28;20031;-47
2022/10/22 08:41:23;;;;;;;3.20;0.98;;;21.00;58.50;;;;;;5049366;28;20467;-53
2022/10/22 08:44:26;;;;;;;6.22;1.48;;;21.10;58.80;;;;;;5066795;28;20044;-53
2022/10/22 08:47:21;;;;;;;4.28;1.10;;;21.10;58.60;;;;;;5050435;28;20071;-52
2022/10/22 08:49:47;;;;;;;3.53;1.30;;;21.10;58.50;;;;;;5048246;28;20025;-49
2022/10/22 08:52:16;;;;;;;3.00;1.25;;;21.10;58.50;;;;;;5050896;28;20040;-52
2022/10/22 08:55:02;;;;;;;3.08;1.13;;;21.10;58.40;;;;;;5048365;28;20024;-51
2022/10/22 08:57:54;;;;;;;4.05;1.30;;;21.20;58.50;;;;;;5049273;28;20041;-53
2022/10/22 09:00:29;;;;;;;3.40;1.13;;;21.20;58.30;;;;;;5046925;28;20382;-52
2022/10/22 09:03:13;;;;;;;3.63;1.30;;;21.20;58.30;;;;;;5048879;28;20025;-54
2022/10/22 09:05:39;;;;;;;3.17;1.20;;;21.20;58.20;;;;;;5048931;28;20075;-51
2022/10/22 09:08:11;;;;;;;2.70;1.15;;;21.20;58.10;;;;;;5049645;28;20483;-51
2022/10/22 09:10:45;;;;;;;3.17;1.25;;;21.20;58.00;;;;;;5047692;28;20356;-53
2022/10/22 09:13:16;;;;;;;3.67;1.50;;;21.20;58.00;;;;;;5052347;28;20036;-51
2022/10/22 09:15:44;;;;;;;3.10;1.15;;;21.20;58.00;;;;;;5054337;28;20055;-49
2022/10/22 09:18:28;;;;;;;4.03;1.00;;;21.20;57.90;;;;;;5053149;28;20021;-50
2022/10/22 09:21:33;;;;;;;4.82;1.25;;;21.20;57.90;;;;;;5051889;28;20123;-52
2022/10/22 09:24:30;;;;;;;5.50;1.52;;;21.20;57.80;;;;;;5052263;28;20040;-52
2022/10/22 09:26:57;;;;;;;3.42;1.15;;;21.20;57.80;;;;;;5053275;28;20364;-48
2022/10/22 09:29:33;;;;;;;3.95;1.00;;;21.20;57.80;;;;;;5053133;28;20112;-50
2022/10/22 09:31:59;;;;;;;2.17;1.00;;;21.20;57.80;;;;;;5052774;28;20387;-50
2022/10/22 09:34:27;;;;;;;2.35;1.10;;;21.20;57.80;;;;;;5051003;28;20053;-52
2022/10/22 09:37:01;;;;;;;2.03;0.95;;;21.20;58.40;;;;;;5052878;28;20063;-49
2022/10/22 09:39:38;;;;;;;3.47;1.00;;;21.20;57.80;;;;;;5050958;28;20024;-49
2022/10/22 09:42:07;;;;;;;3.10;1.15;;;21.20;57.80;;;;;;5051941;28;20056;-50
2022/10/22 09:44:36;;;;;;;2.85;0.90;;;21.20;57.80;;;;;;5050214;28;20130;-49
2022/10/22 09:47:26;;;;;;;3.85;0.90;;;21.20;57.80;;;;;;5048110;28;20460;-53
2022/10/22 09:50:11;;;;;;;2.80;1.00;;;21.20;57.80;;;;;;5037740;28;20067;-48
2022/10/22 09:52:39;;;;;;;1.85;0.90;;;21.30;57.90;;;;;;5047025;28;20198;-47
2022/10/22 09:55:15;;;;;;;3.55;1.30;;;21.30;58.00;;;;;;5048998;28;20051;-46
2022/10/22 09:57:40;;;;;;;5.68;1.20;;;21.30;58.10;;;;;;5048737;28;20044;-51
2022/10/22 10:00:11;;;;;;;3.25;1.20;;;21.30;58.20;;;;;;5048169;28;20060;-51
2022/10/22 10:02:42;;;;;;;3.03;0.90;;;21.30;58.30;;;;;;5048067;28;20033;-51
2022/10/22 10:05:23;;;;;;;3.92;1.40;;;21.30;58.40;;;;;;5047585;28;20063;-57
2022/10/22 10:07:49;;;;;;;3.22;1.17;;;21.30;58.50;;;;;;5045936;28;20091;-54
2022/10/22 10:10:38;;;;;;;4.38;1.13;;;21.30;58.50;;;;;;5048048;28;20035;-50
2022/10/22 10:13:34;;;;;;;4.20;1.15;;;21.30;58.40;;;;;;5046004;28;20029;-47
2022/10/22 10:16:38;;;;;;;4.43;1.08;;;21.30;58.40;;;;;;5046393;28;20112;-52
2022/10/22 10:19:25;;;;;;;5.43;1.25;;;21.30;58.30;;;;;;5047974;28;20112;-52
2022/10/22 10:22:00;;;;;;;1.88;0.90;;;21.30;58.20;;;;;;5049163;28;20028;-47
2022/10/22 10:24:55;;;;;;;3.63;1.15;;;21.30;58.20;;;;;;5046688;28;20037;-48
2022/10/22 10:27:39;;;;;;;;;;;21.30;58.20;;;;;;5021390;28;20405;-53
2022/10/22 10:30:17;;;;;;;3.63;1.00;;;21.30;58.20;;;;;;5047447;28;19909;-51
2022/10/22 10:33:10;;;;;;;4.00;1.25;;;21.40;58.20;;;;;;5048604;28;20027;-52
2022/10/22 10:36:08;;;;;;;2.15;1.00;;;21.30;58.20;;;;;;5046239;28;20065;-54
2022/10/22 10:38:48;;;;;;;2.80;1.20;;;21.40;58.20;;;;;;5047404;28;20094;-54
2022/10/22 10:41:17;;;;;;;2.78;1.08;;;21.40;58.10;;;;;;5047760;28;20041;-53
2022/10/22 10:44:03;;;;;;;2.83;1.00;;;21.40;58.10;;;;;;5047154;28;20029;-53
2022/10/22 10:46:49;;;;;;;3.30;1.00;;;21.40;58.10;;;;;;5048953;28;20437;-54
2022/10/22 10:49:23;;;;;;;3.33;1.10;;;21.40;58.00;;;;;;5046966;28;20037;-55
2022/10/22 10:52:10;;;;;;;3.95;1.30;;;21.40;58.00;;;;;;5044667;28;20033;-53
2022/10/22 10:55:07;;;;;;;3.70;0.95;;;21.40;57.90;;;;;;5048035;28;20029;-52
2022/10/22 10:57:48;;;;;;;4.32;1.20;;;21.40;57.90;;;;;;5047563;28;20069;-58
2022/10/22 11:00:18;;;;;;;4.75;1.13;;;21.40;57.90;;;;;;5050260;28;20444;-52
2022/10/22 11:02:59;;;;;;;3.13;1.05;;;21.40;57.90;;;;;;5046513;28;20059;-51
2022/10/22 11:05:31;;;;;;;2.28;0.93;;;21.40;58.00;;;;;;5050130;28;20047;-52
2022/10/22 11:08:16;;;;;;;4.25;1.48;;;21.50;58.10;;;;;;5049018;28;20068;-51
2022/10/22 11:10:58;;;;;;;2.20;0.85;;;21.50;58.10;;;;;;5048456;28;20460;-51
2022/10/22 11:13:48;;;;;;;3.80;1.25;;;21.50;58.10;;;;;;5046311;28;20472;-51
2022/10/22 11:16:25;;;;;;;3.70;1.13;;;21.50;58.10;;;;;;5050011;28;20040;-54
2022/10/22 11:19:11;;;;;;;2.75;1.15;;;21.50;58.10;;;;;;5048588;28;20089;-50
2022/10/22 11:21:50;;;;;;;3.08;0.80;;;21.50;58.10;;;;;;5050271;28;20349;-53
2022/10/22 11:24:29;;;;;;;4.15;1.15;;;21.50;58.10;;;;;;5048758;28;20041;-55
2022/10/22 11:26:59;;;;;;;3.70;1.27;;;21.60;58.20;;;;;;5052917;28;20037;-52
2022/10/22 11:29:40;;;;;;;2.97;1.10;;;21.50;58.30;;;;;;5048960;28;20076;-55
2022/10/22 11:32:16;;;;;;;3.38;1.13;;;21.60;58.40;;;;;;5050573;28;20460;-52
2022/10/22 11:34:53;;;;;;;3.63;1.30;;;21.60;58.40;;;;;;5051970;28;20349;-50
2022/10/22 11:37:22;;;;;;;4.10;1.15;;;21.60;58.20;;;;;;5049521;28;20031;-59
2022/10/22 11:39:54;;;;;;;3.05;0.88;;;21.70;58.20;;;;;;5050979;28;20040;-51
2022/10/22 11:42:33;;;;;;;4.90;1.20;;;21.70;58.10;;;;;;5050333;28;20094;-48
2022/10/22 11:45:06;;;;;;;2.40;1.00;;;21.70;57.90;;;;;;5046806;28;20025;-52
2022/10/22 11:47:53;;;;;;;2.28;0.93;;;21.70;57.80;;;;;;5051692;28;20040;-52
2022/10/22 11:50:24;;;;;;;2.35;0.90;;;21.70;57.60;;;;;;5037273;28;20045;-49
2022/10/22 11:53:15;;;;;;;5.13;1.40;;;21.70;57.40;;;;;;5049261;28;20348;-47
2022/10/22 11:55:52;;;;;;;4.20;1.08;;;21.70;57.70;;;;;;5046594;28;20033;-55
2022/10/22 11:58:27;;;;;;;3.35;1.20;;;21.80;57.90;;;;;;5050590;28;20040;-59
2022/10/22 12:01:27;;;;;;;3.17;1.10;;;21.80;57.80;;;;;;5048387;28;20122;-54
2022/10/22 12:04:12;;;;;;;3.88;0.90;;;21.80;57.60;;;;;;5043919;28;20033;-57
2022/10/22 12:06:52;;;;;;;5.55;1.50;;;21.90;57.40;;;;;;5049609;28;20555;-58
2022/10/22 12:09:19;;;;;;;4.25;0.98;;;22.00;57.30;;;;;;5049037;28;20403;-57
2022/10/22 12:11:49;;;;;;;3.70;1.08;;;22.00;57.10;;;;;;5047317;28;20087;-56
2022/10/22 12:14:29;;;;;;;3.70;1.10;;;22.20;56.90;;;;;;5046861;28;20051;-55
2022/10/22 12:17:09;;;;;;;4.13;1.35;;;22.30;56.60;;;;;;5047571;28;20032;-59
2022/10/22 12:19:42;;;;;;;2.85;1.45;;;22.40;56.30;;;;;;5048567;28;20025;-51
2022/10/22 12:22:21;;;;;;;4.32;1.35;;;22.40;56.00;;;;;;5049201;28;20360;-57
2022/10/22 12:24:56;;;;;;;3.20;0.90;;;22.60;55.70;;;;;;5048729;28;20035;-53
2022/10/22 12:27:39;;;;;;;3.92;1.10;;;22.70;55.40;;;;;;5047526;28;20108;-56
2022/10/22 12:30:22;;;;;;;4.82;1.10;;;22.80;55.20;;;;;;5047114;28;20448;-53
2022/10/22 12:32:53;;;;;;;3.13;1.00;;;22.90;55.00;;;;;;5041727;28;20124;-52
2022/10/22 12:35:25;;;;;;;3.63;1.25;;;23.00;54.80;;;;;;5049440;28;20033;-57
2022/10/22 12:37:56;;;;;;;3.00;0.90;;;23.10;54.50;;;;;;5046780;28;20082;-52
2022/10/22 12:40:24;;;;;;;4.47;0.88;;;23.20;54.30;;;;;;5048107;28;20028;-54
2022/10/22 12:42:52;;;;;;;3.17;0.80;;;23.30;54.10;;;;;;5047568;28;20111;-54
2022/10/22 12:45:19;;;;;;;5.72;1.30;;;23.30;53.90;;;;;;5048851;28;20113;-54
2022/10/22 12:47:54;;;;;;;2.55;0.90;;;23.40;53.70;;;;;;5048351;28;20055;-53
2022/10/22 12:50:28;;;;;;;5.80;1.35;;;23.50;53.60;;;;;;5050329;28;20036;-54
2022/10/22 12:52:54;;;;;;;4.28;1.27;;;23.50;53.30;;;;;;5046852;28;20044;-56
2022/10/22 12:55:24;;;;;;;3.80;1.00;;;23.60;53.30;;;;;;5048754;28;20025;-54
2022/10/22 12:57:51;;;;;;;3.75;1.42;;;23.70;53.20;;;;;;5048694;28;20459;-51
2022/10/22 13:00:22;;;;;;;5.85;1.40;;;23.70;53.10;;;;;;5046636;28;20033;-52
2022/10/22 13:02:48;;;;;;;3.53;0.82;;;23.80;53.00;;;;;;5046743;28;20048;-53
2022/10/22 13:05:29;;;;;;;4.18;1.15;;;23.80;53.00;;;;;;5045771;28;20028;-56
2022/10/22 13:08:16;;;;;;;3.08;1.15;;;23.90;52.60;;;;;;5047549;28;20111;-52
2022/10/22 13:10:49;;;;;;;4.18;1.20;;;23.90;53.00;;;;;;5046049;28;20040;-56
2022/10/22 13:13:48;;;;;;;2.40;1.05;;;24.00;52.30;;;;;;5039606;28;20110;-54